Time;durP1;ratioP1;P1;durP2;ratioP2;P2;SDS_P1;SDS_P2;PMS_P1;PMS_P2;Temp;Humidity;BMP_temperature;BMP_pressure;BME280_temperature;BME280_humidity;BME280_pressure;Samples;Min_cycle;Max_cycle;Signal;HPM_P1;HPM_P2
2022/02/25 00:02:20;;;;;;;18.75;2.80;;;3.50;99.90;;;;;;5102567;28;20077;-66
2022/02/25 00:04:45;;;;;;;15.05;2.42;;;3.60;99.90;;;;;;5106158;28;20047;-66
2022/02/25 00:07:11;;;;;;;9.05;2.03;;;3.70;99.90;;;;;;5103658;28;20047;-66
2022/02/25 00:09:37;;;;;;;10.43;2.58;;;3.70;99.90;;;;;;5104182;28;20119;-66
2022/02/25 00:12:03;;;;;;;13.10;2.78;;;3.60;99.90;;;;;;5105167;28;20165;-66
2022/02/25 00:14:28;;;;;;;9.27;2.13;;;3.80;99.90;;;;;;5105532;28;20067;-66
2022/02/25 00:16:54;;;;;;;8.90;2.60;;;3.60;99.90;;;;;;5104574;28;20051;-67
2022/02/25 00:19:20;;;;;;;11.13;3.58;;;3.80;99.90;;;;;;5097004;28;20051;-67
2022/02/25 00:21:45;;;;;;;7.82;2.10;;;3.80;99.90;;;;;;5104317;28;20095;-66
2022/02/25 00:24:11;;;;;;;18.63;2.28;;;3.80;99.90;;;;;;5102986;28;20122;-66
2022/02/25 00:26:37;;;;;;;13.75;2.22;;;3.90;99.90;;;;;;5094247;28;20071;-66
2022/02/25 00:29:04;;;;;;;18.08;3.17;;;3.90;99.90;;;;;;5104192;28;20044;-66
2022/02/25 00:31:31;;;;;;;13.95;2.38;;;3.80;99.90;;;;;;5096110;28;20052;-66
2022/02/25 00:33:57;;;;;;;10.02;2.45;;;3.90;99.90;;;;;;5094048;28;20036;-66
2022/02/25 00:36:23;;;;;;;17.80;3.15;;;3.90;99.90;;;;;;5102826;28;20140;-67
2022/02/25 00:38:49;;;;;;;8.98;1.98;;;4.00;99.90;;;;;;5107103;28;20054;-66
2022/02/25 00:41:15;;;;;;;16.10;2.17;;;4.00;99.90;;;;;;5103070;28;20044;-66
2022/02/25 00:43:40;;;;;;;15.05;2.17;;;3.90;99.90;;;;;;5103064;28;20052;-66
2022/02/25 00:46:06;;;;;;;11.45;2.10;;;4.00;99.90;;;;;;5104522;28;20112;-66
2022/02/25 00:48:32;;;;;;;11.30;3.90;;;4.00;99.90;;;;;;5102747;28;20040;-66
2022/02/25 00:50:58;;;;;;;14.38;2.50;;;3.90;99.90;;;;;;5097032;28;20047;-66
2022/02/25 00:53:23;;;;;;;11.80;2.40;;;4.00;99.90;;;;;;5075240;28;20051;-66
2022/02/25 00:55:49;;;;;;;9.70;3.08;;;3.90;99.90;;;;;;5090510;28;20063;-66
2022/02/25 00:58:15;;;;;;;8.65;2.38;;;4.20;99.90;;;;;;5103882;28;20052;-66
2022/02/25 01:00:40;;;;;;;11.20;2.17;;;4.10;99.90;;;;;;5074762;28;20064;-66
2022/02/25 01:03:06;;;;;;;11.48;2.35;;;4.00;99.90;;;;;;5102418;28;20043;-66
2022/02/25 01:05:33;;;;;;;14.13;4.07;;;4.00;99.90;;;;;;5103666;28;20066;-66
2022/02/25 01:08:04;;;;;;;17.38;3.13;;;4.10;99.90;;;;;;5102587;28;20048;-66
2022/02/25 01:10:30;;;;;;;8.95;2.30;;;4.10;99.90;;;;;;5103469;28;20044;-66
2022/02/25 01:12:56;;;;;;;11.45;2.60;;;4.20;99.90;;;;;;5104246;28;20063;-66
2022/02/25 01:15:21;;;;;;;14.38;2.30;;;4.10;99.90;;;;;;5102512;28;20070;-66
2022/02/25 01:17:47;;;;;;;8.73;2.60;;;4.20;99.90;;;;;;5095675;28;20068;-66
2022/02/25 01:20:13;;;;;;;8.55;2.50;;;4.20;99.90;;;;;;5094501;28;20556;-66
2022/02/25 01:22:39;;;;;;;8.15;1.90;;;4.20;99.90;;;;;;5103055;28;20048;-66
2022/02/25 01:25:05;;;;;;;12.23;2.40;;;4.30;99.90;;;;;;5067557;28;20047;-66
2022/02/25 01:27:31;;;;;;;9.25;2.20;;;4.10;99.90;;;;;;5100706;28;20040;-66
2022/02/25 01:29:57;;;;;;;12.75;3.17;;;4.10;99.90;;;;;;5097925;28;20047;-66
2022/02/25 01:32:23;;;;;;;13.32;2.28;;;4.20;99.90;;;;;;5101100;28;20048;-66
2022/02/25 01:34:49;;;;;;;8.48;2.33;;;4.10;99.90;;;;;;5097068;28;20100;-66
2022/02/25 01:37:15;;;;;;;12.52;2.30;;;4.30;99.90;;;;;;5102997;28;20082;-66
2022/02/25 01:39:41;;;;;;;12.73;2.30;;;4.40;99.90;;;;;;5102147;28;20036;-67
2022/02/25 01:42:07;;;;;;;11.73;2.20;;;4.30;99.90;;;;;;5103032;28;20043;-66
2022/02/25 01:44:38;;;;;;;9.85;2.35;;;4.30;99.90;;;;;;5094028;28;20056;-66
2022/02/25 01:47:05;;;;;;;15.95;3.05;;;4.30;99.90;;;;;;5103536;28;20099;-66
2022/02/25 01:49:32;;;;;;;16.77;2.17;;;4.40;99.90;;;;;;5099165;28;20078;-66
2022/02/25 01:52:00;;;;;;;21.20;2.58;;;4.50;99.90;;;;;;5102499;28;20044;-66
2022/02/25 01:54:28;;;;;;;13.73;3.03;;;4.50;99.90;;;;;;5095968;28;20076;-67
2022/02/25 01:56:55;;;;;;;13.55;2.53;;;4.60;99.90;;;;;;5101515;28;20050;-66
2022/02/25 01:59:22;;;;;;;19.65;3.10;;;4.60;99.90;;;;;;5102339;28;20115;-67
2022/02/25 02:01:48;;;;;;;12.82;2.80;;;4.60;99.90;;;;;;5101956;28;20043;-66
2022/02/25 02:04:13;;;;;;;13.05;2.17;;;4.60;99.90;;;;;;5094489;28;20050;-66
2022/02/25 02:06:40;;;;;;;10.40;2.40;;;4.60;99.90;;;;;;5102029;28;20257;-66
2022/02/25 02:09:07;;;;;;;12.13;2.47;;;4.60;99.90;;;;;;5101825;28;20044;-66
2022/02/25 02:11:47;;;;;;;11.48;2.53;;;4.60;99.90;;;;;;5089891;28;20045;-66
2022/02/25 02:14:16;;;;;;;16.40;3.17;;;4.70;99.90;;;;;;5094580;28;20055;-66
2022/02/25 02:16:44;;;;;;;12.45;2.25;;;4.70;99.90;;;;;;5101313;28;20043;-66
2022/02/25 02:19:10;;;;;;;12.05;2.58;;;4.60;99.90;;;;;;5103337;28;20480;-67
2022/02/25 02:21:45;;;;;;;11.63;2.10;;;4.70;99.90;;;;;;5101791;28;20052;-67
2022/02/25 02:24:13;;;;;;;11.63;2.47;;;4.70;99.90;;;;;;5101728;28;20048;-66
2022/02/25 02:26:41;;;;;;;12.57;2.42;;;4.50;99.90;;;;;;5096277;28;20067;-66
2022/02/25 02:29:08;;;;;;;16.55;2.45;;;4.70;99.90;;;;;;5102049;28;20055;-66
2022/02/25 02:31:35;;;;;;;9.88;2.80;;;4.60;99.90;;;;;;5096958;28;20048;-66
2022/02/25 02:34:01;;;;;;;10.00;2.30;;;4.50;99.90;;;;;;5100674;28;20044;-66
2022/02/25 02:36:26;;;;;;;15.32;2.20;;;4.60;99.90;;;;;;5107248;28;20097;-66
2022/02/25 02:38:54;;;;;;;12.15;2.38;;;4.40;99.90;;;;;;5105266;28;20438;-66
2022/02/25 02:41:20;;;;;;;14.35;2.67;;;4.40;99.90;;;;;;5106689;28;20082;-66
2022/02/25 02:43:46;;;;;;;9.45;2.10;;;4.20;99.90;;;;;;5105349;28;20051;-67
2022/02/25 02:46:13;;;;;;;14.43;2.95;;;4.30;99.90;;;;;;5105920;28;20044;-66
2022/02/25 02:48:40;;;;;;;15.38;2.22;;;4.50;99.90;;;;;;5105140;28;20052;-66
2022/02/25 02:51:06;;;;;;;13.90;2.75;;;4.40;99.90;;;;;;5101840;28;20087;-67
2022/02/25 02:53:32;;;;;;;13.77;2.40;;;4.10;99.90;;;;;;5104832;28;20047;-66
2022/02/25 02:55:58;;;;;;;12.73;2.95;;;3.90;99.90;;;;;;5106358;28;20076;-67
2022/02/25 02:58:24;;;;;;;13.60;2.35;;;3.90;99.90;;;;;;5105993;28;20044;-66
2022/02/25 03:00:52;;;;;;;11.75;3.28;;;3.80;99.90;;;;;;5106212;28;20073;-66
2022/02/25 03:03:18;;;;;;;13.48;2.45;;;3.60;99.90;;;;;;5099840;28;20119;-66
2022/02/25 03:05:44;;;;;;;8.30;2.35;;;3.60;99.90;;;;;;5093106;28;20051;-66
2022/02/25 03:08:10;;;;;;;11.80;2.85;;;3.60;99.90;;;;;;5096852;28;20064;-66
2022/02/25 03:10:37;;;;;;;12.05;2.58;;;3.50;99.90;;;;;;5104759;28;20052;-66
2022/02/25 03:13:06;;;;;;;14.27;2.55;;;3.50;99.90;;;;;;5100224;28;20050;-66
2022/02/25 03:15:32;;;;;;;7.10;2.13;;;3.40;99.90;;;;;;5092530;28;20050;-66
2022/02/25 03:17:59;;;;;;;9.50;2.30;;;3.50;99.90;;;;;;5104708;28;20036;-66
2022/02/25 03:20:24;;;;;;;9.98;2.72;;;3.30;99.90;;;;;;5104549;28;20048;-66
2022/02/25 03:22:52;;;;;;;9.70;2.30;;;3.30;99.90;;;;;;5098067;28;20076;-67
2022/02/25 03:25:19;;;;;;;15.55;2.83;;;3.40;99.90;;;;;;5104472;28;20047;-66
2022/02/25 03:27:45;;;;;;;6.60;1.77;;;3.20;99.90;;;;;;5105755;28;20040;-66
2022/02/25 03:30:12;;;;;;;6.78;1.80;;;3.10;99.90;;;;;;5104077;28;20040;-66
2022/02/25 03:32:38;;;;;;;9.55;2.10;;;3.10;99.90;;;;;;5104678;28;20047;-66
2022/02/25 03:35:05;;;;;;;11.02;2.38;;;3.10;99.90;;;;;;5103989;28;20062;-67
2022/02/25 03:37:31;;;;;;;14.07;2.10;;;3.10;99.90;;;;;;5108516;28;20058;-66
2022/02/25 03:39:57;;;;;;;10.75;2.42;;;2.90;99.90;;;;;;5102245;28;20071;-66
2022/02/25 03:42:23;;;;;;;8.82;2.35;;;2.90;99.90;;;;;;5103484;28;20036;-66
2022/02/25 03:44:49;;;;;;;13.88;2.30;;;3.00;99.90;;;;;;5103860;28;20090;-66
2022/02/25 03:47:15;;;;;;;12.93;3.00;;;2.90;99.90;;;;;;5104705;28;20109;-66
2022/02/25 03:49:41;;;;;;;11.85;2.45;;;3.10;99.90;;;;;;5093052;28;20123;-66
2022/02/25 03:52:07;;;;;;;10.82;2.75;;;2.80;99.90;;;;;;5091980;28;20049;-66
2022/02/25 03:54:33;;;;;;;9.80;2.15;;;2.80;99.90;;;;;;5098639;28;20048;-66
2022/02/25 03:57:00;;;;;;;14.13;2.47;;;2.70;99.90;;;;;;5104993;28;20071;-66
2022/02/25 03:59:26;;;;;;;13.95;2.47;;;2.90;99.90;;;;;;5105300;28;20044;-66
2022/02/25 04:01:52;;;;;;;14.35;2.15;;;2.70;99.90;;;;;;5105067;28;20040;-66
2022/02/25 04:04:24;;;;;;;13.20;2.10;;;2.70;99.90;;;;;;5104066;28;20173;-66
2022/02/25 04:06:50;;;;;;;10.32;2.03;;;2.80;99.90;;;;;;5101899;28;20227;-66
2022/02/25 04:09:19;;;;;;;14.23;2.95;;;2.90;99.90;;;;;;5087416;28;20121;-67
2022/02/25 04:11:50;;;;;;;13.00;2.50;;;2.80;99.90;;;;;;5094289;28;20056;-66
2022/02/25 04:14:19;;;;;;;12.45;2.00;;;2.90;99.90;;;;;;5105838;28;20278;-66
2022/02/25 04:16:45;;;;;;;12.35;2.00;;;2.80;99.90;;;;;;5103746;28;20048;-66
2022/02/25 04:19:11;;;;;;;13.32;2.10;;;3.00;99.90;;;;;;5100509;28;20044;-66
2022/02/25 04:21:37;;;;;;;16.90;2.35;;;2.70;99.90;;;;;;5104825;28;20051;-66
2022/02/25 04:24:03;;;;;;;12.52;2.15;;;2.90;99.90;;;;;;5103928;28;20048;-66
2022/02/25 04:26:29;;;;;;;10.88;2.28;;;2.90;99.90;;;;;;5104978;28;20047;-66
2022/02/25 04:28:55;;;;;;;15.88;2.88;;;2.90;99.90;;;;;;5099205;28;20048;-66
2022/02/25 04:31:21;;;;;;;13.82;2.72;;;2.70;99.90;;;;;;5101754;28;20076;-67
2022/02/25 04:33:46;;;;;;;10.13;1.95;;;2.70;99.90;;;;;;5104341;28;20082;-66
2022/02/25 04:36:13;;;;;;;13.45;3.25;;;2.90;99.90;;;;;;5104645;28;20036;-66
2022/02/25 04:38:39;;;;;;;10.05;2.22;;;2.80;99.90;;;;;;5105348;28;20052;-66
2022/02/25 04:41:05;;;;;;;10.90;2.55;;;2.90;99.90;;;;;;5103654;28;20043;-67
2022/02/25 04:43:32;;;;;;;12.80;2.22;;;3.00;99.90;;;;;;5104625;28;20044;-66
2022/02/25 04:45:59;;;;;;;11.02;1.88;;;2.60;99.90;;;;;;5091252;28;20055;-66
2022/02/25 04:48:26;;;;;;;8.60;2.05;;;2.60;99.90;;;;;;5098728;28;20066;-66
2022/02/25 04:50:53;;;;;;;13.30;3.20;;;2.50;99.90;;;;;;5097321;28;20047;-66
2022/02/25 04:53:19;;;;;;;14.77;2.50;;;2.70;99.90;;;;;;5090232;28;20056;-66
2022/02/25 04:55:46;;;;;;;12.90;2.47;;;2.50;99.90;;;;;;5091468;28;20040;-66
2022/02/25 04:58:16;;;;;;;13.75;2.33;;;2.60;99.90;;;;;;5103852;28;20055;-66
2022/02/25 05:00:42;;;;;;;14.68;2.05;;;2.70;99.90;;;;;;5101548;28;20036;-66
2022/02/25 05:03:08;;;;;;;9.82;2.45;;;2.40;99.90;;;;;;5078607;28;20078;-66
2022/02/25 05:05:34;;;;;;;14.73;2.38;;;2.50;99.90;;;;;;5103436;28;20621;-66
2022/02/25 05:08:00;;;;;;;12.63;2.55;;;2.70;99.90;;;;;;5095274;28;20074;-66
2022/02/25 05:10:27;;;;;;;15.50;3.45;;;2.80;99.90;;;;;;5102311;28;20044;-66
2022/02/25 05:12:53;;;;;;;17.45;2.95;;;2.60;99.90;;;;;;5100337;28;20040;-66
2022/02/25 05:20:48;;;;;;;12.27;2.95;;;2.70;99.90;;;;;;5104042;28;20052;-66
2022/02/25 05:23:15;;;;;;;16.88;2.65;;;2.70;99.90;;;;;;5100825;28;20059;-67
2022/02/25 05:25:41;;;;;;;12.65;2.67;;;2.90;99.90;;;;;;5096344;28;20068;-67
2022/02/25 05:28:07;;;;;;;14.85;2.67;;;2.70;99.90;;;;;;5102132;28;20052;-66
2022/02/25 05:30:33;;;;;;;22.80;3.28;;;3.00;99.90;;;;;;5089501;28;20056;-66
2022/02/25 05:32:59;;;;;;;17.95;3.22;;;3.00;99.90;;;;;;5100631;28;20046;-66
2022/02/25 05:35:25;;;;;;;12.48;2.22;;;3.00;99.90;;;;;;5099802;28;20044;-66
2022/02/25 05:37:51;;;;;;;17.20;2.22;;;2.90;99.90;;;;;;5098463;28;20073;-66
2022/02/25 05:40:19;;;;;;;17.05;2.20;;;3.10;99.90;;;;;;5095180;28;20052;-67
2022/02/25 05:42:46;;;;;;;15.27;2.55;;;2.90;99.90;;;;;;5102147;28;20096;-66
2022/02/25 05:45:12;;;;;;;10.85;2.45;;;3.00;99.90;;;;;;5103897;28;20047;-66
2022/02/25 05:47:39;;;;;;;14.00;2.65;;;2.90;99.90;;;;;;5095626;28;20111;-66
2022/02/25 05:50:08;;;;;;;14.60;2.03;;;2.90;99.90;;;;;;5096912;28;20048;-66
2022/02/25 05:52:34;;;;;;;18.10;2.30;;;3.00;99.90;;;;;;5085044;28;20125;-66
2022/02/25 05:55:00;;;;;;;15.32;2.60;;;3.00;99.90;;;;;;5094663;28;20048;-67
2022/02/25 05:57:26;;;;;;;11.88;2.60;;;3.10;99.90;;;;;;5090276;28;20120;-66
2022/02/25 05:59:51;;;;;;;14.00;2.72;;;3.00;99.90;;;;;;5086262;28;20087;-66
2022/02/25 06:02:17;;;;;;;16.35;2.33;;;3.00;99.90;;;;;;5095518;28;20047;-66
2022/02/25 06:04:43;;;;;;;14.15;3.85;;;3.00;99.90;;;;;;5098802;28;20097;-66
2022/02/25 06:07:08;;;;;;;14.63;2.88;;;3.30;99.90;;;;;;5097588;28;20036;-66
2022/02/25 06:09:34;;;;;;;15.45;3.05;;;3.10;99.90;;;;;;5099574;28;20044;-67
2022/02/25 06:12:00;;;;;;;14.82;2.53;;;3.00;99.90;;;;;;5107284;28;20079;-66
2022/02/25 06:14:26;;;;;;;16.92;2.85;;;3.20;99.90;;;;;;5095321;28;20044;-66
2022/02/25 06:16:51;;;;;;;14.43;2.70;;;3.00;99.90;;;;;;5094442;28;20043;-66
2022/02/25 06:19:17;;;;;;;11.93;2.60;;;3.20;99.90;;;;;;5093687;28;20078;-66
2022/02/25 06:21:43;;;;;;;9.43;2.20;;;3.20;99.90;;;;;;5100089;28;20134;-67
2022/02/25 06:24:10;;;;;;;17.83;3.55;;;3.20;99.90;;;;;;5105764;28;20052;-66
2022/02/25 06:26:37;;;;;;;20.58;3.97;;;3.20;99.90;;;;;;5085987;28;20039;-66
2022/02/25 06:29:04;;;;;;;11.70;2.90;;;3.40;99.90;;;;;;5097213;28;20575;-66
2022/02/25 06:31:29;;;;;;;12.38;2.20;;;3.20;99.90;;;;;;5104613;28;20113;-66
2022/02/25 06:33:55;;;;;;;16.75;3.05;;;3.50;99.90;;;;;;5089364;28;20047;-66
2022/02/25 06:36:21;;;;;;;16.95;2.70;;;3.30;99.90;;;;;;5051846;28;20056;-66
2022/02/25 06:38:48;;;;;;;17.17;2.92;;;3.20;99.90;;;;;;5074369;28;20043;-66
2022/02/25 06:41:15;;;;;;;14.63;2.78;;;3.20;99.90;;;;;;5080993;28;20108;-66
2022/02/25 06:43:41;;;;;;;14.27;3.75;;;3.30;99.90;;;;;;5095647;28;20055;-67
2022/02/25 06:46:08;;;;;;;14.02;4.43;;;3.30;99.90;;;;;;5098564;28;20124;-67
2022/02/25 06:48:34;;;;;;;18.30;3.22;;;3.00;99.90;;;;;;5092288;28;20049;-67
2022/02/25 06:51:00;;;;;;;21.40;3.60;;;3.10;99.90;;;;;;5098890;28;20058;-67
2022/02/25 06:53:26;;;;;;;16.55;4.05;;;3.10;99.90;;;;;;5078557;28;20052;-67
2022/02/25 06:55:51;;;;;;;20.10;4.63;;;3.10;99.90;;;;;;5065605;28;20081;-67
2022/02/25 06:58:17;;;;;;;17.30;3.65;;;3.10;99.90;;;;;;5094792;28;20048;-67
2022/02/25 07:00:43;;;;;;;17.63;3.50;;;3.00;99.90;;;;;;5064744;28;20142;-67
2022/02/25 07:03:09;;;;;;;16.40;3.15;;;3.00;99.90;;;;;;5095417;28;20136;-67
2022/02/25 07:05:39;;;;;;;17.95;3.15;;;3.00;99.90;;;;;;5089003;28;20558;-68
2022/02/25 07:08:06;;;;;;;15.15;3.72;;;3.00;99.90;;;;;;5096016;28;20052;-67
2022/02/25 07:10:32;;;;;;;14.85;3.63;;;3.20;99.90;;;;;;5088522;28;20051;-67
2022/02/25 07:12:59;;;;;;;19.00;4.88;;;3.20;99.90;;;;;;5097587;28;20055;-66
2022/02/25 07:15:25;;;;;;;18.38;4.35;;;3.30;99.90;;;;;;5090811;28;20578;-66
2022/02/25 07:17:51;;;;;;;24.02;4.53;;;3.10;99.90;;;;;;5094528;28;20069;-66
2022/02/25 07:20:16;;;;;;;16.58;4.70;;;3.30;99.90;;;;;;5096622;28;20043;-66
2022/02/25 07:22:42;;;;;;;19.85;3.97;;;3.30;99.90;;;;;;5097412;28;20048;-67
2022/02/25 07:25:08;;;;;;;21.42;5.22;;;3.10;99.90;;;;;;5089523;28;20124;-67
2022/02/25 07:27:34;;;;;;;22.23;3.72;;;3.10;99.90;;;;;;5090468;28;20028;-67
2022/02/25 07:30:00;;;;;;;16.60;3.90;;;3.20;99.90;;;;;;5090705;28;20054;-67
2022/02/25 07:32:26;;;;;;;19.88;4.18;;;3.40;99.90;;;;;;5061488;28;20355;-66
2022/02/25 07:34:53;;;;;;;16.92;3.85;;;3.50;99.90;;;;;;5089139;28;20071;-68
2022/02/25 07:37:19;;;;;;;21.00;3.75;;;3.30;99.90;;;;;;5065918;28;20054;-66
2022/02/25 07:39:44;;;;;;;20.10;4.40;;;3.50;99.90;;;;;;5090323;28;20039;-66
2022/02/25 07:42:10;;;;;;;21.05;4.60;;;3.60;99.90;;;;;;5095813;28;20471;-65
2022/02/25 07:44:36;;;;;;;15.82;4.20;;;3.30;99.90;;;;;;5063971;28;20432;-65
2022/02/25 07:47:02;;;;;;;18.65;3.13;;;3.30;99.90;;;;;;5073468;28;20081;-65
2022/02/25 07:49:27;;;;;;;16.42;4.30;;;3.60;99.90;;;;;;5097193;28;20044;-65
2022/02/25 07:51:53;;;;;;;19.35;4.28;;;3.30;99.90;;;;;;5086457;28;20073;-65
2022/02/25 07:54:20;;;;;;;21.95;3.88;;;3.60;99.90;;;;;;5099341;28;20052;-65
2022/02/25 07:56:46;;;;;;;21.02;4.18;;;3.70;99.90;;;;;;5085159;28;20587;-65
2022/02/25 07:59:12;;;;;;;15.35;3.33;;;3.70;99.90;;;;;;5098329;28;20040;-65
2022/02/25 08:01:39;;;;;;;23.38;4.53;;;3.90;99.90;;;;;;5088008;28;20060;-65
2022/02/25 08:04:07;;;;;;;19.35;4.07;;;4.10;99.90;;;;;;5066338;28;20064;-66
2022/02/25 08:06:33;;;;;;;27.58;5.07;;;4.00;99.90;;;;;;5085210;28;20040;-65
2022/02/25 08:08:58;;;;;;;24.58;4.80;;;3.80;99.90;;;;;;5090686;28;20082;-65
2022/02/25 08:11:24;;;;;;;21.60;3.70;;;3.90;99.90;;;;;;5088966;28;20048;-67
2022/02/25 08:13:50;;;;;;;20.27;3.88;;;4.20;99.90;;;;;;5087462;28;20078;-74
2022/02/25 08:16:16;;;;;;;22.92;3.83;;;4.40;99.90;;;;;;5085353;28;20039;-75
2022/02/25 08:18:41;;;;;;;17.05;3.42;;;4.60;99.90;;;;;;5035846;28;20132;-75
2022/02/25 08:21:07;;;;;;;19.95;3.92;;;4.40;99.90;;;;;;5091339;28;20055;-72
2022/02/25 08:23:33;;;;;;;18.30;3.78;;;4.50;99.90;;;;;;5098369;28;20127;-71
2022/02/25 08:25:59;;;;;;;23.40;3.75;;;4.70;99.90;;;;;;5090248;28;20501;-71
2022/02/25 08:28:26;;;;;;;16.52;3.33;;;4.80;99.90;;;;;;5087964;28;20040;-72
2022/02/25 08:30:52;;;;;;;20.92;3.67;;;4.80;99.90;;;;;;5090864;28;20096;-71
2022/02/25 08:33:17;;;;;;;14.15;2.72;;;4.80;99.90;;;;;;5080758;28;20043;-71
2022/02/25 08:35:43;;;;;;;22.55;4.65;;;4.90;99.90;;;;;;5071323;28;20063;-72
2022/02/25 08:38:09;;;;;;;15.70;2.90;;;4.80;99.90;;;;;;5095353;28;20055;-72
2022/02/25 08:40:37;;;;;;;20.55;4.38;;;5.00;99.90;;;;;;5092676;28;20198;-72
2022/02/25 08:43:03;;;;;;;20.92;4.13;;;5.20;99.90;;;;;;5087541;28;20118;-72
2022/02/25 08:45:29;;;;;;;26.85;4.45;;;5.30;99.90;;;;;;5080022;28;20051;-72
2022/02/25 08:47:56;;;;;;;20.98;4.47;;;5.40;99.90;;;;;;5086726;28;20048;-72
2022/02/25 08:50:22;;;;;;;19.77;3.33;;;5.50;99.90;;;;;;5085825;28;20048;-72
2022/02/25 08:52:51;;;;;;;20.50;4.03;;;5.40;99.90;;;;;;5094302;28;20040;-72
2022/02/25 08:55:18;;;;;;;17.75;4.07;;;5.70;99.90;;;;;;5079937;28;20046;-72
2022/02/25 08:57:44;;;;;;;25.50;4.15;;;5.90;99.90;;;;;;5097446;28;20044;-72
2022/02/25 09:00:16;;;;;;;13.88;2.85;;;6.00;99.90;;;;;;5079710;28;20093;-72
2022/02/25 09:02:44;;;;;;;13.85;2.45;;;6.00;99.90;;;;;;5078646;28;20063;-72
2022/02/25 09:05:10;;;;;;;17.48;3.28;;;6.20;99.90;;;;;;5088428;28;20044;-71
2022/02/25 09:07:36;;;;;;;16.48;2.95;;;6.40;99.90;;;;;;5067312;28;20262;-69
2022/02/25 09:10:04;;;;;;;19.52;3.05;;;6.30;99.90;;;;;;5092014;28;20090;-70
2022/02/25 09:12:29;;;;;;;13.50;2.78;;;6.50;99.90;;;;;;5088149;28;20050;-71
2022/02/25 09:14:55;;;;;;;15.63;2.75;;;6.20;99.90;;;;;;5096223;28;20135;-70
2022/02/25 09:17:21;;;;;;;15.07;2.40;;;6.10;99.90;;;;;;5083000;28;20047;-70
2022/02/25 09:19:47;;;;;;;14.98;3.63;;;6.20;99.90;;;;;;5096484;28;20028;-69
2022/02/25 09:22:13;;;;;;;15.15;3.13;;;6.10;99.90;;;;;;5078089;28;20109;-70
2022/02/25 09:24:39;;;;;;;15.45;2.20;;;6.10;99.90;;;;;;5088001;28;20134;-70
2022/02/25 09:27:05;;;;;;;18.23;2.88;;;6.00;99.90;;;;;;5076501;28;20086;-70
2022/02/25 09:29:31;;;;;;;14.40;3.00;;;6.10;99.90;;;;;;5076376;28;20059;-70
2022/02/25 09:31:57;;;;;;;12.60;2.92;;;5.90;99.90;;;;;;5103814;28;20799;-70
2022/02/25 09:34:22;;;;;;;21.10;3.33;;;6.00;99.90;;;;;;5077005;28;20074;-70
2022/02/25 09:36:48;;;;;;;13.57;2.65;;;6.10;99.90;;;;;;5027630;28;20052;-70
2022/02/25 09:39:14;;;;;;;18.45;3.28;;;6.30;99.90;;;;;;5065315;28;20052;-70
2022/02/25 09:41:41;;;;;;;18.30;3.17;;;6.60;99.90;;;;;;5082064;28;20040;-69
2022/02/25 09:44:07;;;;;;;17.13;2.60;;;6.60;99.90;;;;;;5096589;28;20698;-70
2022/02/25 09:46:34;;;;;;;14.75;2.70;;;6.70;99.90;;;;;;5082225;28;20047;-69
2022/02/25 09:49:00;;;;;;;13.55;3.15;;;6.70;99.90;;;;;;5077437;28;20059;-70
2022/02/25 09:51:27;;;;;;;13.30;2.50;;;6.90;99.90;;;;;;5063175;28;20056;-70
2022/02/25 09:53:53;;;;;;;18.65;3.47;;;7.00;99.90;;;;;;5093717;28;20032;-70
2022/02/25 09:56:19;;;;;;;16.52;2.78;;;6.90;99.90;;;;;;5089268;28;20490;-70
2022/02/25 09:58:45;;;;;;;18.80;3.13;;;6.90;99.90;;;;;;5066490;28;20055;-69
2022/02/25 10:01:12;;;;;;;18.15;2.55;;;7.00;99.90;;;;;;5083840;28;20097;-70
2022/02/25 10:03:38;;;;;;;14.88;3.00;;;7.20;99.90;;;;;;5073358;28;20048;-70
2022/02/25 10:06:09;;;;;;;20.65;4.03;;;7.30;99.90;;;;;;5087184;28;20380;-70
2022/02/25 10:08:36;;;;;;;18.90;3.20;;;7.40;99.90;;;;;;5097838;28;20036;-72
2022/02/25 10:11:02;;;;;;;19.15;3.15;;;7.50;99.90;;;;;;5092388;28;20058;-70
2022/02/25 10:13:30;;;;;;;19.30;3.17;;;7.30;99.90;;;;;;5095007;28;20514;-70
2022/02/25 10:15:59;;;;;;;22.75;3.40;;;7.00;99.90;;;;;;5072870;28;20094;-70
2022/02/25 10:18:33;;;;;;;19.42;3.88;;;6.90;99.90;;;;;;5112228;28;20055;-71
2022/02/25 10:21:07;;;;;;;17.23;3.08;;;6.70;99.90;;;;;;5090819;28;20482;-67
2022/02/25 10:23:37;;;;;;;21.00;4.05;;;6.50;99.90;;;;;;5094747;28;20045;-71
2022/02/25 10:26:28;;;;;;;15.05;2.75;;;6.60;99.90;;;;;;5091671;28;20487;-71
2022/02/25 10:28:58;;;;;;;22.75;3.78;;;6.60;99.90;;;;;;5096731;28;20273;-71
2022/02/25 10:31:29;;;;;;;20.55;4.13;;;6.60;99.90;;;;;;5083838;28;20059;-70
2022/02/25 10:34:02;;;;;;;19.98;3.38;;;6.70;99.90;;;;;;5091856;28;20067;-72
2022/02/25 10:36:44;;;;;;;16.35;3.63;;;6.80;99.90;;;;;;5059769;28;20065;-71
2022/02/25 10:39:21;;;;;;;17.02;3.00;;;6.90;99.90;;;;;;5094419;28;20067;-70
2022/02/25 10:42:06;;;;;;;14.27;2.78;;;6.80;99.90;;;;;;5083049;28;20052;-70
2022/02/25 10:45:09;;;;;;;21.67;3.13;;;6.70;99.90;;;;;;5084768;28;20139;-70
2022/02/25 10:47:34;;;;;;;21.65;3.88;;;6.80;99.90;;;;;;5008069;28;20069;-70
2022/02/25 10:50:09;;;;;;;19.63;3.55;;;7.00;99.90;;;;;;5024193;28;20054;-71
2022/02/25 10:52:38;;;;;;;25.27;3.72;;;7.10;99.90;;;;;;5010429;28;20520;-70
2022/02/25 10:55:10;;;;;;;21.10;3.20;;;7.30;99.90;;;;;;5021170;28;20472;-70
2022/02/25 10:57:36;;;;;;;24.38;4.80;;;7.70;99.90;;;;;;4999843;28;21114;-70
2022/02/25 11:00:07;;;;;;;18.90;3.30;;;8.00;99.90;;;;;;5017229;28;20060;-70
2022/02/25 11:02:39;;;;;;;23.92;4.45;;;8.10;99.90;;;;;;5008742;28;20533;-70
2022/02/25 11:05:08;;;;;;;23.75;5.28;;;7.80;99.90;;;;;;5026796;28;20620;-70
2022/02/25 11:07:36;;;;;;;25.42;3.88;;;7.50;99.90;;;;;;5021278;28;20061;-70
2022/02/25 11:10:04;;;;;;;21.75;4.10;;;7.20;99.90;;;;;;5020392;28;20045;-70
2022/02/25 11:12:30;;;;;;;20.80;3.58;;;6.40;99.90;;;;;;5009865;28;20516;-71
2022/02/25 11:14:58;;;;;;;18.67;3.30;;;6.20;99.90;;;;;;5009749;28;20045;-71
2022/02/25 11:17:25;;;;;;;18.08;3.05;;;6.00;99.90;;;;;;5012418;28;20045;-71
2022/02/25 11:19:55;;;;;;;25.42;3.78;;;6.00;99.90;;;;;;5004742;28;20075;-70
2022/02/25 11:22:22;;;;;;;18.85;2.80;;;6.10;99.90;;;;;;5007123;28;20123;-70
2022/02/25 11:24:49;;;;;;;7.72;2.80;;;6.10;99.90;;;;;;5075792;28;20544;-72
2022/02/25 11:27:15;;;;;;;12.02;2.25;;;5.60;99.90;;;;;;5090023;28;20587;-71
2022/02/25 11:30:05;;;;;;;5.65;1.30;;;5.50;99.90;;;;;;5083061;28;20130;-71
2022/02/25 11:33:01;;;;;;;4.07;1.25;;;5.60;99.90;;;;;;5088485;28;20051;-72
2022/02/25 11:35:34;;;;;;;5.97;0.98;;;5.50;99.90;;;;;;5079395;28;20116;-71
2022/02/25 11:38:06;;;;;;;7.70;1.15;;;5.50;99.90;;;;;;5054576;28;20036;-71
2022/02/25 11:40:56;;;;;;;4.78;1.25;;;5.50;99.90;;;;;;5096929;28;20077;-71
2022/02/25 11:43:51;;;;;;;4.05;1.33;;;5.60;99.90;;;;;;5070505;28;20055;-70
2022/02/25 11:46:28;;;;;;;6.78;1.38;;;6.00;99.90;;;;;;5089111;28;20109;-70
2022/02/25 11:49:15;;;;;;;6.90;1.63;;;6.30;99.90;;;;;;5083971;28;20634;-71
2022/02/25 11:51:57;;;;;;;6.25;1.45;;;6.30;99.90;;;;;;5091500;28;20043;-69
2022/02/25 11:54:28;;;;;;;6.15;1.10;;;6.50;99.90;;;;;;5098499;28;20040;-70
2022/02/25 11:56:57;;;;;;;7.38;2.15;;;6.60;99.90;;;;;;5062217;28;20150;-69
2022/02/25 11:59:49;;;;;;;6.03;1.45;;;6.70;99.90;;;;;;5098536;28;20195;-70
2022/02/25 12:02:19;;;;;;;8.18;1.48;;;6.70;99.90;;;;;;5089873;28;20056;-69
2022/02/25 12:04:53;;;;;;;13.07;1.98;;;7.00;99.90;;;;;;5093370;28;20495;-70
2022/02/25 12:07:32;;;;;;;6.43;1.40;;;7.20;99.90;;;;;;5080459;28;20079;-70
2022/02/25 12:10:13;;;;;;;6.88;1.52;;;7.20;99.90;;;;;;5095469;28;20044;-70
2022/02/25 12:12:39;;;;;;;10.45;1.40;;;7.20;99.90;;;;;;5091210;28;20054;-70
2022/02/25 12:15:12;;;;;;;10.20;2.10;;;7.40;99.90;;;;;;5090824;28;20060;-70
2022/02/25 12:17:55;;;;;;;8.50;1.77;;;7.30;99.90;;;;;;5076688;28;20062;-69
2022/02/25 12:20:33;;;;;;;11.65;2.03;;;7.40;99.90;;;;;;5076934;28;20055;-70
2022/02/25 12:23:18;;;;;;;9.43;1.65;;;7.50;99.90;;;;;;5081629;28;20056;-70
2022/02/25 12:25:55;;;;;;;7.88;1.52;;;7.60;99.90;;;;;;5095632;28;20083;-69
2022/02/25 12:28:27;;;;;;;8.68;2.03;;;7.70;99.90;;;;;;5058243;28;20083;-70
2022/02/25 12:31:13;;;;;;;8.90;2.10;;;7.80;99.90;;;;;;5072968;28;20474;-70
2022/02/25 12:33:45;;;;;;;10.13;1.35;;;7.90;99.90;;;;;;5096746;28;20040;-70
2022/02/25 12:36:13;;;;;;;16.20;2.95;;;8.00;99.90;;;;;;5093959;28;20040;-70
2022/02/25 12:38:41;;;;;;;11.18;2.20;;;8.20;99.90;;;;;;5091568;28;20080;-70
2022/02/25 12:41:22;;;;;;;10.45;1.60;;;8.20;99.90;;;;;;5078247;28;20279;-70
2022/02/25 12:43:50;;;;;;;10.27;1.55;;;8.20;99.90;;;;;;5091632;28;20114;-69
2022/02/25 12:46:22;;;;;;;10.95;2.38;;;8.40;99.90;;;;;;5091595;28;20131;-70
2022/02/25 12:48:49;;;;;;;7.97;2.15;;;8.50;99.90;;;;;;5090677;28;20087;-70
2022/02/25 12:51:15;;;;;;;12.98;2.60;;;8.60;99.90;;;;;;5099279;28;20056;-70
2022/02/25 12:54:08;;;;;;;13.30;2.40;;;8.70;99.90;;;;;;5084397;28;20043;-70
2022/02/25 12:56:58;;;;;;;16.33;2.53;;;8.50;99.90;;;;;;5092549;28;20086;-70
2022/02/25 12:59:38;;;;;;;9.30;1.70;;;8.90;99.90;;;;;;5077896;28;20044;-70